createdAt,value
2017-11-19T00:00:57.213Z,24.10
2017-11-19T00:03:26.130Z,24.00
2017-11-19T00:05:54.297Z,24.00
2017-11-19T00:08:22.454Z,24.00
2017-11-19T00:10:51.770Z,23.90
2017-11-19T00:13:21.308Z,23.90
2017-11-19T00:15:50.194Z,23.90
2017-11-19T00:18:18.390Z,23.90
2017-11-19T00:20:46.487Z,23.90
2017-11-19T00:23:15.129Z,23.80
2017-11-19T00:25:43.314Z,23.90
2017-11-19T00:28:11.956Z,24.00
2017-11-19T00:30:40.769Z,23.90
2017-11-19T00:33:09.122Z,23.90
2017-11-19T00:35:37.958Z,23.80
2017-11-19T00:38:06.054Z,23.80
2017-11-19T00:40:34.814Z,23.80
2017-11-19T00:43:03.227Z,23.70
2017-11-19T00:45:31.777Z,23.80
2017-11-19T00:48:00.089Z,23.80
2017-11-19T00:50:28.242Z,23.80
2017-11-19T00:52:57.128Z,23.80
2017-11-19T00:55:26.161Z,23.70
2017-11-19T00:57:55.037Z,23.70
2017-11-19T01:00:23.693Z,23.80
2017-11-19T01:02:51.946Z,23.80
2017-11-19T01:05:23.797Z,23.80
2017-11-19T01:07:52.606Z,23.80
2017-11-19T01:10:21.153Z,23.80
2017-11-19T01:12:49.210Z,23.80
2017-11-19T01:15:17.898Z,23.80
2017-11-19T01:17:46.659Z,23.70
2017-11-19T01:20:14.810Z,23.80
2017-11-19T01:22:42.994Z,23.70
2017-11-19T01:25:11.744Z,23.70
2017-11-19T01:27:40.623Z,23.70
2017-11-19T01:30:09.387Z,23.70
2017-11-19T01:32:37.481Z,23.70
2017-11-19T01:35:05.570Z,23.70
2017-11-19T01:37:33.795Z,23.60
2017-11-19T01:40:02.620Z,23.60
2017-11-19T01:42:31.277Z,23.60
2017-11-19T01:45:00.170Z,23.50
2017-11-19T01:47:28.906Z,23.50
2017-11-19T01:49:59.037Z,23.50
2017-11-19T01:52:28.105Z,23.40
2017-11-19T01:54:57.127Z,23.40
2017-11-19T01:57:26.374Z,23.30
2017-11-19T01:59:54.695Z,23.30
2017-11-19T02:02:31.649Z,23.30
2017-11-19T02:04:59.842Z,23.30
2017-11-19T02:07:27.996Z,23.30
2017-11-19T02:09:56.666Z,23.20
2017-11-19T02:12:25.466Z,23.20
2017-11-19T02:14:54.145Z,23.30
2017-11-19T02:17:22.836Z,23.20
2017-11-19T02:19:51.855Z,23.10
2017-11-19T02:22:19.958Z,23.10
2017-11-19T02:24:49.538Z,23.00
2017-11-19T02:27:17.733Z,23.00
2017-11-19T02:29:46.465Z,22.90
2017-11-19T02:32:14.611Z,22.90
2017-11-19T02:34:43.616Z,22.80
2017-11-19T02:37:12.818Z,22.80
2017-11-19T02:39:41.717Z,22.90
2017-11-19T02:42:10.369Z,22.80
2017-11-19T02:44:38.549Z,22.80
2017-11-19T02:47:06.766Z,22.80
2017-11-19T02:49:34.866Z,22.90
2017-11-19T02:52:03.021Z,22.90
2017-11-19T02:54:31.191Z,22.90
2017-11-19T02:56:59.564Z,22.90
2017-11-19T02:59:27.645Z,22.90
2017-11-19T03:01:55.810Z,22.90
2017-11-19T03:04:24.346Z,22.90
2017-11-19T03:06:52.526Z,22.90
2017-11-19T03:09:20.623Z,22.90
2017-11-19T03:11:49.541Z,23.10
2017-11-19T03:14:17.640Z,23.10
2017-11-19T03:16:45.789Z,23.20
2017-11-19T03:19:14.646Z,23.40
2017-11-19T03:21:43.483Z,23.70
2017-11-19T03:24:11.585Z,23.60
2017-11-19T03:26:39.695Z,23.90
2017-11-19T03:29:08.606Z,24.30
2017-11-19T03:31:36.675Z,24.30
2017-11-19T03:34:05.413Z,25.60
2017-11-19T03:36:33.566Z,27.40
2017-11-19T03:39:01.650Z,27.10
2017-11-19T03:41:29.750Z,27.60
2017-11-19T03:43:58.495Z,27.90
2017-11-19T03:46:27.168Z,27.30
2017-11-19T03:48:55.646Z,26.20
2017-11-19T03:51:23.723Z,25.80
2017-11-19T03:53:51.796Z,25.60
2017-11-19T03:56:20.501Z,25.80
2017-11-19T03:58:49.217Z,26.10
2017-11-19T04:01:17.916Z,26.00
2017-11-19T04:03:46.574Z,26.40
2017-11-19T04:06:14.787Z,26.20
2017-11-19T04:08:43.714Z,26.30
2017-11-19T04:11:11.787Z,26.30
2017-11-19T04:13:40.474Z,26.10
2017-11-19T04:16:08.972Z,26.30
2017-11-19T04:18:37.044Z,26.60
2017-11-19T04:21:05.757Z,26.60
2017-11-19T04:23:33.910Z,27.00
2017-11-19T04:26:02.109Z,27.40
2017-11-19T04:28:30.954Z,27.50
2017-11-19T04:30:59.642Z,28.10
2017-11-19T04:33:27.808Z,28.50
2017-11-19T04:35:57.337Z,28.70
2017-11-19T04:38:25.525Z,28.70
2017-11-19T04:40:53.622Z,28.70
2017-11-19T04:43:22.063Z,28.60
2017-11-19T04:45:50.742Z,28.30
2017-11-19T04:48:19.447Z,28.30
2017-11-19T04:50:48.366Z,28.30
2017-11-19T04:53:16.541Z,28.50
2017-11-19T04:55:44.698Z,28.70
2017-11-19T04:58:12.770Z,28.80
2017-11-19T05:00:41.505Z,28.60
2017-11-19T05:03:10.109Z,28.60
2017-11-19T05:05:39.542Z,28.30
2017-11-19T05:08:07.721Z,28.30
2017-11-19T05:10:35.805Z,28.60
2017-11-19T05:13:03.977Z,28.60
2017-11-19T05:15:32.066Z,28.70
2017-11-19T05:18:00.706Z,28.90
2017-11-19T05:20:29.453Z,28.80
2017-11-19T05:22:57.538Z,29.20
2017-11-19T05:25:25.693Z,29.20
2017-11-19T05:27:53.779Z,29.10
2017-11-19T05:30:22.422Z,29.30
2017-11-19T05:32:51.162Z,28.90
2017-11-19T05:35:19.774Z,28.90
2017-11-19T05:37:48.374Z,29.10
2017-11-19T05:40:16.554Z,28.90
2017-11-19T05:42:44.709Z,29.20
2017-11-19T05:45:13.383Z,29.00
2017-11-19T05:47:42.768Z,29.60
2017-11-19T05:50:11.065Z,29.60
2017-11-19T05:52:39.899Z,29.50
2017-11-19T05:55:08.070Z,29.40
2017-11-19T05:57:36.159Z,29.40
2017-11-19T06:00:04.309Z,29.30
2017-11-19T06:02:32.593Z,29.60
2017-11-19T06:05:00.676Z,29.40
2017-11-19T06:07:28.758Z,29.50
2017-11-19T06:09:56.938Z,29.60
2017-11-19T06:12:25.015Z,29.70
2017-11-19T06:14:53.161Z,30.00
2017-11-19T06:17:21.262Z,30.00
2017-11-19T06:19:49.413Z,30.10
2017-11-19T06:22:17.493Z,30.30
2017-11-19T06:24:45.657Z,30.80
2017-11-19T06:27:13.762Z,30.70
2017-11-19T06:29:41.921Z,30.50
2017-11-19T06:32:10.492Z,30.60
2017-11-19T06:34:39.282Z,30.40
2017-11-19T06:37:08.071Z,30.50
2017-11-19T06:39:36.174Z,30.70
2017-11-19T06:42:04.360Z,30.70
2017-11-19T06:44:32.458Z,30.30
2017-11-19T06:47:01.782Z,30.50
2017-11-19T06:49:29.974Z,30.50
2017-11-19T06:51:58.703Z,30.50
2017-11-19T06:54:26.785Z,30.60
2017-11-19T06:56:55.685Z,30.50
2017-11-19T06:59:24.518Z,30.40
2017-11-19T07:01:53.245Z,30.40
2017-11-19T07:04:22.187Z,30.60
2017-11-19T07:06:51.018Z,30.70
2017-11-19T07:09:19.570Z,30.80
2017-11-19T07:11:47.642Z,30.80
2017-11-19T07:14:15.745Z,30.70
2017-11-19T07:16:43.826Z,30.90
2017-11-19T07:19:12.417Z,30.90
2017-11-19T07:21:41.062Z,31.00
2017-11-19T07:24:09.806Z,31.00
2017-11-19T07:26:38.738Z,31.10
2017-11-19T07:29:07.029Z,31.10
2017-11-19T07:31:35.369Z,31.20
2017-11-19T07:34:04.750Z,31.00
2017-11-19T07:36:33.415Z,31.00
2017-11-19T07:39:02.209Z,31.10
2017-11-19T07:41:30.665Z,31.20
2017-11-19T07:43:58.902Z,31.30
2017-11-19T07:46:27.747Z,31.40
2017-11-19T07:48:55.928Z,31.40
2017-11-19T07:51:24.694Z,31.40
2017-11-19T07:53:52.778Z,31.30
2017-11-19T07:56:20.954Z,31.40
2017-11-19T07:58:49.103Z,31.30
2017-11-19T08:01:17.215Z,31.30
2017-11-19T08:03:45.650Z,31.40
2017-11-19T08:06:14.169Z,31.40
2017-11-19T08:08:42.973Z,31.20
2017-11-19T08:11:11.521Z,31.30
2017-11-19T08:13:39.602Z,31.50
2017-11-19T08:16:07.702Z,31.50
2017-11-19T08:18:35.787Z,31.50
2017-11-19T08:21:04.329Z,31.40
2017-11-19T08:23:33.175Z,31.60
2017-11-19T08:26:02.453Z,31.50
2017-11-19T08:28:30.561Z,31.50
2017-11-19T08:30:59.407Z,31.90
2017-11-19T08:33:27.476Z,31.90
2017-11-19T08:35:56.112Z,31.90
2017-11-19T08:38:25.390Z,31.90
2017-11-19T08:40:54.194Z,31.80
2017-11-19T08:43:23.089Z,31.90
2017-11-19T08:45:52.023Z,31.80
2017-11-19T08:48:20.165Z,31.80
2017-11-19T08:50:49.326Z,31.80
2017-11-19T08:53:18.086Z,31.80
2017-11-19T08:55:46.838Z,31.80
2017-11-19T08:58:16.019Z,32.30
2017-11-19T09:00:44.166Z,32.30
2017-11-19T09:03:12.312Z,32.20
2017-11-19T09:05:40.381Z,32.00
2017-11-19T09:08:09.212Z,32.00
2017-11-19T09:10:37.361Z,32.00
2017-11-19T09:13:05.439Z,32.00
2017-11-19T09:15:33.674Z,32.10
2017-11-19T09:18:02.489Z,32.00
2017-11-19T09:20:31.150Z,32.00
2017-11-19T09:22:59.962Z,32.20
2017-11-19T09:25:28.541Z,32.20
2017-11-19T09:27:56.611Z,32.20
2017-11-19T09:30:25.505Z,32.20
2017-11-19T09:32:54.322Z,32.20
2017-11-19T09:35:22.485Z,32.10
2017-11-19T09:37:51.269Z,32.00
2017-11-19T09:40:19.411Z,32.00
2017-11-19T09:42:48.236Z,32.10
2017-11-19T09:45:16.397Z,32.10
2017-11-19T09:47:45.271Z,32.20
2017-11-19T09:50:14.746Z,32.10
2017-11-19T09:52:43.046Z,32.10
2017-11-19T09:55:11.791Z,32.20
2017-11-19T09:57:40.534Z,32.00
2017-11-19T10:00:09.382Z,32.20
2017-11-19T10:02:37.445Z,32.20
2017-11-19T10:05:05.514Z,32.20
2017-11-19T10:07:33.683Z,32.10
2017-11-19T10:10:02.605Z,32.00
2017-11-19T10:12:31.299Z,32.20
2017-11-19T10:14:59.893Z,32.00
2017-11-19T10:17:28.037Z,31.90
2017-11-19T10:19:56.201Z,31.90
2017-11-19T10:22:24.904Z,31.80
2017-11-19T10:24:52.975Z,31.80
2017-11-19T10:27:21.130Z,31.70
2017-11-19T10:29:49.289Z,31.70
2017-11-19T10:32:17.441Z,31.70
2017-11-19T10:34:45.595Z,31.60
2017-11-19T10:37:13.666Z,31.60
2017-11-19T10:39:42.270Z,31.60
2017-11-19T10:42:12.547Z,31.70
2017-11-19T10:44:41.363Z,31.70
2017-11-19T10:47:09.396Z,31.50
2017-11-19T10:49:37.462Z,31.50
2017-11-19T10:52:06.210Z,31.40
2017-11-19T10:54:34.998Z,31.40
2017-11-19T10:57:03.878Z,31.30
2017-11-19T10:59:32.027Z,31.30
2017-11-19T11:02:00.189Z,31.30
2017-11-19T11:04:28.278Z,31.30
2017-11-19T11:06:56.416Z,31.20
2017-11-19T11:09:25.858Z,31.00
2017-11-19T11:11:54.071Z,31.00
2017-11-19T11:14:22.757Z,31.00
2017-11-19T11:16:50.847Z,31.00
2017-11-19T11:19:19.741Z,30.90
2017-11-19T11:21:48.572Z,30.90
2017-11-19T11:24:17.262Z,30.90
2017-11-19T11:26:46.141Z,30.80
2017-11-19T11:29:15.759Z,30.60
2017-11-19T11:31:44.430Z,30.50
2017-11-19T11:34:12.504Z,30.50
2017-11-19T11:36:40.657Z,30.50
2017-11-19T11:39:10.036Z,30.40
2017-11-19T11:41:39.289Z,30.10
2017-11-19T11:44:07.925Z,30.20
2017-11-19T11:46:36.002Z,30.20
2017-11-19T11:49:04.085Z,30.30
2017-11-19T11:51:32.927Z,30.20
2017-11-19T11:54:01.079Z,30.20
2017-11-19T11:56:29.783Z,30.10
2017-11-19T11:58:58.630Z,30.00
2017-11-19T12:01:28.122Z,30.00
2017-11-19T12:03:56.210Z,30.00
2017-11-19T12:06:25.018Z,30.10
2017-11-19T12:08:53.914Z,30.60
2017-11-19T12:11:22.506Z,30.60
2017-11-19T12:13:51.258Z,31.00
2017-11-19T12:16:20.057Z,30.80
2017-11-19T12:18:48.956Z,30.70
2017-11-19T12:21:17.768Z,30.60
2017-11-19T12:23:45.830Z,30.60
2017-11-19T12:26:15.308Z,30.50
2017-11-19T12:28:43.473Z,30.50
2017-11-19T12:31:12.270Z,30.40
2017-11-19T12:33:40.343Z,30.20
2017-11-19T12:36:08.540Z,30.30
2017-11-19T12:38:37.513Z,30.10
2017-11-19T12:41:05.776Z,30.10
2017-11-19T12:43:33.942Z,30.10
2017-11-19T12:46:02.100Z,30.10
2017-11-19T12:48:30.204Z,30.00
2017-11-19T12:50:58.341Z,29.90
2017-11-19T12:53:26.477Z,29.70
2017-11-19T12:55:55.148Z,29.70
2017-11-19T12:58:23.742Z,29.70
2017-11-19T13:00:53.189Z,29.60
2017-11-19T13:03:21.273Z,29.60
2017-11-19T13:05:49.402Z,29.50
2017-11-19T13:08:18.221Z,29.40
2017-11-19T13:10:46.922Z,29.40
2017-11-19T13:13:15.738Z,29.40
2017-11-19T13:15:44.029Z,29.40
2017-11-19T13:18:12.714Z,29.30
2017-11-19T13:20:40.793Z,29.30
2017-11-19T13:23:08.879Z,29.20
2017-11-19T13:25:37.774Z,29.00
2017-11-19T13:28:07.170Z,29.00
2017-11-19T13:30:35.381Z,29.00
2017-11-19T13:33:03.465Z,29.00
2017-11-19T13:35:31.542Z,28.90
2017-11-19T13:37:59.682Z,28.90
2017-11-19T13:40:29.061Z,28.90
2017-11-19T13:42:57.764Z,28.80
2017-11-19T13:45:27.149Z,28.70
2017-11-19T13:47:55.885Z,28.60
2017-11-19T13:50:24.035Z,28.70
2017-11-19T13:52:52.957Z,28.70
2017-11-19T13:55:21.101Z,28.70
2017-11-19T13:57:50.386Z,28.60
2017-11-19T14:00:19.233Z,28.60
2017-11-19T14:02:47.731Z,28.70
2017-11-19T14:05:15.808Z,28.60
2017-11-19T14:07:43.940Z,28.60
2017-11-19T14:10:12.042Z,28.50
2017-11-19T14:12:40.600Z,28.60
2017-11-19T14:15:09.245Z,28.50
2017-11-19T14:17:38.141Z,28.50
2017-11-19T14:20:06.838Z,28.40
2017-11-19T14:22:34.907Z,28.50
2017-11-19T14:25:03.062Z,28.40
2017-11-19T14:27:31.625Z,28.50
2017-11-19T14:30:00.353Z,28.50
2017-11-19T14:32:28.508Z,28.40
2017-11-19T14:34:57.074Z,28.30
2017-11-19T14:37:25.227Z,28.30
2017-11-19T14:39:53.307Z,28.20
2017-11-19T14:42:21.387Z,28.30
2017-11-19T14:44:50.003Z,28.30
2017-11-19T14:47:18.642Z,28.30
2017-11-19T14:49:47.440Z,28.30
2017-11-19T14:52:15.646Z,28.20
2017-11-19T14:54:43.822Z,28.20
2017-11-19T14:57:11.907Z,28.20
2017-11-19T14:59:40.709Z,28.10
2017-11-19T15:02:09.224Z,28.10
2017-11-19T15:04:37.730Z,28.10
2017-11-19T15:07:06.649Z,28.10
2017-11-19T15:09:34.958Z,28.10
2017-11-19T15:12:03.890Z,28.10
2017-11-19T15:14:32.816Z,28.10
2017-11-19T15:17:01.369Z,28.10
2017-11-19T15:19:30.261Z,28.10
2017-11-19T15:21:58.847Z,28.10
2017-11-19T15:24:27.041Z,28.10
2017-11-19T15:26:55.215Z,28.10
2017-11-19T15:29:24.015Z,28.20
2017-11-19T15:31:52.642Z,28.20
2017-11-19T15:34:22.169Z,28.20
2017-11-19T15:36:52.008Z,28.20
2017-11-19T15:39:20.094Z,28.20
2017-11-19T15:41:48.241Z,28.20
2017-11-19T15:44:16.363Z,28.20
2017-11-19T15:46:45.289Z,28.20
2017-11-19T15:49:13.898Z,28.20
2017-11-19T15:51:41.991Z,28.10
2017-11-19T15:54:10.079Z,28.00
2017-11-19T15:56:38.229Z,28.00
2017-11-19T15:59:06.955Z,28.10
2017-11-19T16:01:35.035Z,28.00
2017-11-19T16:04:04.513Z,27.80
2017-11-19T16:06:33.078Z,27.80
2017-11-19T16:09:01.638Z,27.70
2017-11-19T16:11:30.458Z,27.60
2017-11-19T16:13:58.533Z,27.60
2017-11-19T16:16:26.635Z,27.60
2017-11-19T16:18:55.154Z,27.60
2017-11-19T16:21:24.010Z,27.50
2017-11-19T16:23:52.089Z,27.50
2017-11-19T16:26:20.906Z,27.30
2017-11-19T16:28:49.076Z,27.30
2017-11-19T16:31:18.126Z,27.40
2017-11-19T16:33:46.878Z,27.40
2017-11-19T16:36:15.488Z,27.40
2017-11-19T16:38:44.212Z,27.30
2017-11-19T16:41:12.360Z,27.30
2017-11-19T16:43:40.470Z,27.30
2017-11-19T16:46:09.711Z,27.30
2017-11-19T16:48:37.786Z,27.20
2017-11-19T16:51:06.457Z,27.20
2017-11-19T16:53:35.162Z,27.20
2017-11-19T16:56:03.316Z,27.20
2017-11-19T16:58:31.397Z,27.20
2017-11-19T17:00:59.586Z,27.10
2017-11-19T17:03:27.757Z,27.10
2017-11-19T17:05:55.834Z,27.20
2017-11-19T17:08:23.904Z,27.20
2017-11-19T17:10:52.226Z,27.20
2017-11-19T17:13:20.469Z,27.10
2017-11-19T17:15:48.637Z,27.10
2017-11-19T17:18:16.715Z,27.10
2017-11-19T17:20:44.865Z,27.20
2017-11-19T17:23:13.070Z,27.10
2017-11-19T17:25:41.299Z,26.90
2017-11-19T17:28:10.219Z,26.90
2017-11-19T17:30:38.393Z,26.90
2017-11-19T17:33:06.561Z,26.80
2017-11-19T17:35:40.434Z,26.80
2017-11-19T17:38:08.530Z,26.70
2017-11-19T17:40:37.388Z,26.70
2017-11-19T17:43:05.644Z,26.70
2017-11-19T17:45:33.856Z,26.70
2017-11-19T17:48:03.360Z,26.70
2017-11-19T17:50:32.697Z,26.70
2017-11-19T17:53:01.415Z,26.70
2017-11-19T17:55:30.102Z,26.70
2017-11-19T17:57:59.063Z,26.60
2017-11-19T18:00:27.270Z,26.50
2017-11-19T18:02:55.830Z,26.50
2017-11-19T18:05:24.305Z,26.40
2017-11-19T18:07:53.001Z,26.40
2017-11-19T18:10:21.714Z,26.40
2017-11-19T18:12:49.794Z,26.30
2017-11-19T18:15:18.081Z,26.20
2017-11-19T18:17:46.155Z,26.20
2017-11-19T18:20:14.234Z,26.30
2017-11-19T18:22:42.645Z,26.30
2017-11-19T18:25:10.958Z,26.30
2017-11-19T18:27:39.389Z,26.30
2017-11-19T18:30:08.401Z,26.30
2017-11-19T18:32:37.330Z,26.30
2017-11-19T18:35:05.977Z,26.30
2017-11-19T18:37:34.901Z,26.20
2017-11-19T18:40:03.629Z,26.20
2017-11-19T18:42:31.727Z,26.10
2017-11-19T18:45:00.721Z,26.10
2017-11-19T18:47:29.536Z,26.20
2017-11-19T18:49:58.178Z,26.10
2017-11-19T18:52:27.070Z,26.10
2017-11-19T18:54:55.801Z,26.00
2017-11-19T18:57:24.809Z,26.00
2017-11-19T18:59:52.996Z,26.10
2017-11-19T19:02:21.062Z,26.10
2017-11-19T19:04:49.201Z,26.10
2017-11-19T19:07:18.220Z,26.00
2017-11-19T19:09:46.975Z,26.00
2017-11-19T19:12:15.794Z,26.00
2017-11-19T19:14:44.117Z,26.00
2017-11-19T19:17:12.219Z,26.00
2017-11-19T19:19:41.619Z,26.00
2017-11-19T19:22:11.059Z,26.00
2017-11-19T19:24:39.641Z,25.90
2017-11-19T19:27:08.552Z,25.90
2017-11-19T19:29:36.807Z,26.00
2017-11-19T19:32:04.961Z,26.00
2017-11-19T19:34:34.390Z,25.80
2017-11-19T19:37:02.669Z,25.80
2017-11-19T19:39:31.250Z,25.80
2017-11-19T19:41:59.338Z,25.80
2017-11-19T19:44:27.617Z,25.80
2017-11-19T19:46:55.762Z,25.90
2017-11-19T19:49:25.049Z,25.90
2017-11-19T19:51:54.581Z,25.90
2017-11-19T19:54:23.377Z,25.90
2017-11-19T19:56:51.441Z,25.70
2017-11-19T19:59:19.637Z,25.70
2017-11-19T20:01:47.717Z,25.70
2017-11-19T20:04:16.540Z,25.90
2017-11-19T20:06:45.394Z,26.00
2017-11-19T20:09:13.471Z,26.00
2017-11-19T20:11:42.039Z,25.80
2017-11-19T20:14:10.986Z,25.90
2017-11-19T20:16:39.148Z,25.90
2017-11-19T20:19:07.309Z,25.90
2017-11-19T20:21:35.576Z,25.80
2017-11-19T20:24:04.241Z,25.60
2017-11-19T20:26:32.393Z,25.60
2017-11-19T20:29:01.524Z,25.50
2017-11-19T20:31:30.351Z,25.50
2017-11-19T20:33:58.489Z,25.70
2017-11-19T20:36:27.185Z,25.70
2017-11-19T20:38:55.888Z,25.70
2017-11-19T20:41:23.971Z,25.70
2017-11-19T20:43:52.947Z,25.80
2017-11-19T20:46:21.714Z,25.60
2017-11-19T20:48:49.778Z,25.50
2017-11-19T20:51:18.469Z,25.30
2017-11-19T20:53:47.175Z,25.40
2017-11-19T20:56:16.023Z,25.40
2017-11-19T20:58:45.457Z,25.40
2017-11-19T21:01:14.213Z,25.30
2017-11-19T21:03:43.046Z,25.50
2017-11-19T21:06:11.308Z,25.40
2017-11-19T21:08:39.962Z,25.40
2017-11-19T21:11:08.658Z,25.30
2017-11-19T21:13:38.110Z,25.30
2017-11-19T21:16:06.822Z,25.30
2017-11-19T21:18:34.884Z,25.40
2017-11-19T21:21:03.098Z,25.40
2017-11-19T21:23:32.513Z,25.40
2017-11-19T21:26:01.954Z,25.30
2017-11-19T21:28:30.127Z,25.30
2017-11-19T21:30:58.846Z,25.30
2017-11-19T21:33:26.974Z,25.30
2017-11-19T21:35:55.602Z,25.30
2017-11-19T21:38:24.158Z,25.40
2017-11-19T21:40:53.006Z,25.40
2017-11-19T21:43:22.601Z,25.30
2017-11-19T21:45:51.510Z,25.30
2017-11-19T21:48:20.598Z,25.20
2017-11-19T21:50:48.866Z,25.20
2017-11-19T21:53:17.393Z,25.20
2017-11-19T21:55:46.041Z,25.20
2017-11-19T21:58:14.976Z,25.20
2017-11-19T22:00:43.730Z,25.20
2017-11-19T22:03:11.910Z,25.10
2017-11-19T22:05:40.945Z,25.10
2017-11-19T22:08:09.681Z,25.10
2017-11-19T22:10:37.855Z,25.10
2017-11-19T22:13:07.618Z,25.10
2017-11-19T22:15:35.760Z,25.10
2017-11-19T22:18:04.573Z,24.90
2017-11-19T22:20:32.839Z,24.90
2017-11-19T22:23:01.659Z,24.80
2017-11-19T22:25:30.362Z,24.90
2017-11-19T22:27:59.129Z,24.80
2017-11-19T22:30:27.215Z,24.70
2017-11-19T22:32:55.507Z,24.70
2017-11-19T22:35:23.694Z,24.70
2017-11-19T22:37:51.833Z,24.70
2017-11-19T22:40:20.758Z,24.80
2017-11-19T22:42:49.674Z,24.70
2017-11-19T22:45:18.532Z,24.70
2017-11-19T22:47:46.613Z,24.70
2017-11-19T22:50:14.806Z,24.70
2017-11-19T22:52:42.989Z,24.70
2017-11-19T22:55:12.165Z,24.60
2017-11-19T22:57:40.338Z,24.60
2017-11-19T23:00:08.986Z,24.70
2017-11-19T23:02:37.729Z,24.60
2017-11-19T23:05:06.001Z,24.50
2017-11-19T23:07:34.149Z,24.60
2017-11-19T23:10:02.231Z,24.60
2017-11-19T23:12:31.042Z,24.60
2017-11-19T23:14:59.669Z,24.60
2017-11-19T23:17:28.327Z,24.50
2017-11-19T23:19:57.349Z,24.50
2017-11-19T23:22:25.498Z,24.50
2017-11-19T23:24:54.857Z,24.40
2017-11-19T23:27:23.132Z,24.30
2017-11-19T23:29:51.198Z,24.40
2017-11-19T23:32:19.768Z,24.30
2017-11-19T23:34:48.821Z,24.30
2017-11-19T23:37:17.471Z,24.30
2017-11-19T23:39:45.625Z,24.40
2017-11-19T23:42:14.410Z,24.30
2017-11-19T23:44:43.118Z,24.30
2017-11-19T23:47:11.806Z,24.30
2017-11-19T23:49:40.007Z,24.20
2017-11-19T23:52:08.161Z,24.10
2017-11-19T23:54:36.229Z,24.10
2017-11-19T23:57:05.031Z,24.10
2017-11-19T23:59:33.910Z,24.00
